createdAt,value
2018-01-27T00:01:29.017Z,94.00
2018-01-27T00:03:56.915Z,93.70
2018-01-27T00:06:24.467Z,93.70
2018-01-27T00:08:52.361Z,94.30
2018-01-27T00:11:19.842Z,94.40
2018-01-27T00:13:51.104Z,94.30
2018-01-27T00:16:18.588Z,94.10
2018-01-27T00:18:46.094Z,93.60
2018-01-27T00:21:13.580Z,93.80
2018-01-27T00:23:41.470Z,93.90
2018-01-27T00:26:09.444Z,94.00
2018-01-27T00:28:37.021Z,94.00
2018-01-27T00:31:04.904Z,94.40
2018-01-27T00:33:32.864Z,94.40
2018-01-27T00:36:00.444Z,94.40
2018-01-27T00:38:27.948Z,94.20
2018-01-27T00:40:55.432Z,94.70
2018-01-27T00:43:22.930Z,94.60
2018-01-27T00:45:50.415Z,94.60
2018-01-27T00:48:17.923Z,94.00
2018-01-27T00:50:45.414Z,93.80
2018-01-27T00:53:12.920Z,94.10
2018-01-27T00:55:40.424Z,94.10
2018-01-27T00:58:08.391Z,94.60
2018-01-27T01:00:35.958Z,94.60
2018-01-27T01:03:03.547Z,94.40
2018-01-27T01:05:31.044Z,94.50
2018-01-27T01:07:58.588Z,94.80
2018-01-27T01:10:26.561Z,95.20
2018-01-27T01:12:54.448Z,95.40
2018-01-27T01:15:22.345Z,95.20
2018-01-27T01:17:49.829Z,95.20
2018-01-27T01:20:17.367Z,94.90
2018-01-27T01:22:45.244Z,95.60
2018-01-27T01:25:12.744Z,95.50
2018-01-27T01:27:40.293Z,95.60
2018-01-27T01:30:08.183Z,95.70
2018-01-27T01:32:36.156Z,95.60
2018-01-27T01:35:04.056Z,95.30
2018-01-27T01:37:31.590Z,95.30
2018-01-27T01:39:59.093Z,95.30
2018-01-27T01:42:32.223Z,95.20
2018-01-27T01:44:59.720Z,95.40
2018-01-27T01:47:27.212Z,95.60
2018-01-27T01:49:54.710Z,95.80
2018-01-27T01:52:22.196Z,95.60
2018-01-27T01:54:49.700Z,95.70
2018-01-27T01:57:17.187Z,95.70
2018-01-27T01:59:44.688Z,95.60
2018-01-27T02:02:12.172Z,95.80
2018-01-27T02:04:39.705Z,95.80
2018-01-27T02:07:07.275Z,95.50
2018-01-27T02:09:34.772Z,95.30
2018-01-27T02:12:02.274Z,95.00
2018-01-27T02:14:29.754Z,95.10
2018-01-27T02:16:57.253Z,95.10
2018-01-27T02:19:24.735Z,95.10
2018-01-27T02:21:52.632Z,95.70
2018-01-27T02:24:20.517Z,95.50
2018-01-27T02:26:48.016Z,95.50
2018-01-27T02:29:15.505Z,95.60
2018-01-27T02:31:43.008Z,95.70
2018-01-27T02:34:10.888Z,94.50
2018-01-27T02:36:38.780Z,95.10
2018-01-27T02:39:06.655Z,95.30
2018-01-27T02:41:34.551Z,95.30
2018-01-27T02:44:02.022Z,95.30
2018-01-27T02:46:29.528Z,95.30
2018-01-27T02:48:57.006Z,95.40
2018-01-27T02:51:24.504Z,95.50
2018-01-27T02:53:51.988Z,95.30
2018-01-27T02:56:19.888Z,95.10
2018-01-27T02:58:47.367Z,95.10
2018-01-27T03:01:14.871Z,94.70
2018-01-27T03:03:42.371Z,94.70
2018-01-27T03:06:09.888Z,94.70
2018-01-27T03:08:37.369Z,95.00
2018-01-27T03:11:04.868Z,95.20
2018-01-27T03:13:32.355Z,95.00
2018-01-27T03:15:59.855Z,95.30
2018-01-27T03:18:27.339Z,95.20
2018-01-27T03:20:54.831Z,95.00
2018-01-27T03:23:22.316Z,95.10
2018-01-27T03:25:49.815Z,95.00
2018-01-27T03:28:17.692Z,94.80
2018-01-27T03:30:45.616Z,95.20
2018-01-27T03:33:13.151Z,95.20
2018-01-27T03:35:40.648Z,95.00
2018-01-27T03:38:08.147Z,95.30
2018-01-27T03:40:35.629Z,95.10
2018-01-27T03:43:03.128Z,95.10
2018-01-27T03:45:31.016Z,95.00
2018-01-27T03:47:58.516Z,95.00
2018-01-27T03:50:26.009Z,95.10
2018-01-27T03:52:53.508Z,95.30
2018-01-27T03:55:21.384Z,95.40
2018-01-27T03:57:48.889Z,95.40
2018-01-27T04:00:16.371Z,95.30
2018-01-27T04:02:43.872Z,95.40
2018-01-27T04:05:11.359Z,95.20
2018-01-27T04:07:38.865Z,95.40
2018-01-27T04:10:06.348Z,95.50
2018-01-27T04:12:33.847Z,95.50
2018-01-27T04:15:01.331Z,95.70
2018-01-27T04:17:28.831Z,96.10
2018-01-27T04:19:56.702Z,96.10
2018-01-27T04:22:24.595Z,96.10
2018-01-27T04:24:52.476Z,96.60
2018-01-27T04:27:20.399Z,96.60
2018-01-27T04:29:47.879Z,96.60
2018-01-27T04:32:15.389Z,96.30
2018-01-27T04:34:43.263Z,96.40
2018-01-27T04:37:11.161Z,96.40
2018-01-27T04:39:39.036Z,96.30
2018-01-27T04:42:07.003Z,96.30
2018-01-27T04:44:34.879Z,96.10
2018-01-27T04:47:02.382Z,96.10
2018-01-27T04:49:29.919Z,96.00
2018-01-27T04:51:57.420Z,96.10
2018-01-27T04:54:24.904Z,95.90
2018-01-27T04:56:52.394Z,95.80
2018-01-27T04:59:19.876Z,96.00
2018-01-27T05:01:47.351Z,95.70
2018-01-27T05:04:14.855Z,95.90
2018-01-27T05:06:42.829Z,96.10
2018-01-27T05:09:10.729Z,96.10
2018-01-27T05:11:38.212Z,96.10
2018-01-27T05:14:05.715Z,96.30
2018-01-27T05:16:33.197Z,96.10
2018-01-27T05:19:00.695Z,96.20
2018-01-27T05:21:28.572Z,96.10
2018-01-27T05:23:56.470Z,96.20
2018-01-27T05:26:23.946Z,96.20
2018-01-27T05:28:51.447Z,96.30
2018-01-27T05:31:18.936Z,96.50
2018-01-27T05:33:46.436Z,96.30
2018-01-27T05:36:14.319Z,96.60
2018-01-27T05:38:42.226Z,96.40
2018-01-27T05:41:09.704Z,96.40
2018-01-27T05:43:37.208Z,96.30
2018-01-27T05:46:04.692Z,96.40
2018-01-27T05:48:32.272Z,96.30
2018-01-27T05:50:59.759Z,96.00
2018-01-27T05:53:27.255Z,96.20
2018-01-27T05:55:54.735Z,96.80
2018-01-27T05:58:22.236Z,96.90
2018-01-27T06:00:49.715Z,96.90
2018-01-27T06:03:17.210Z,96.60
2018-01-27T06:05:45.087Z,96.70
2018-01-27T06:08:12.978Z,96.50
2018-01-27T06:10:40.454Z,96.50
2018-01-27T06:13:07.955Z,96.40
2018-01-27T06:15:35.448Z,96.40
2018-01-27T06:18:02.955Z,96.40
2018-01-27T06:20:30.440Z,96.10
2018-01-27T06:22:57.944Z,96.20
2018-01-27T06:25:25.432Z,96.40
2018-01-27T06:27:52.925Z,97.00
2018-01-27T06:30:20.824Z,97.10
2018-01-27T06:32:48.303Z,97.10
2018-01-27T06:35:15.843Z,96.90
2018-01-27T06:37:43.719Z,97.00
2018-01-27T06:40:11.224Z,97.00
2018-01-27T06:42:38.712Z,96.70
2018-01-27T06:45:06.202Z,97.00
2018-01-27T06:47:33.688Z,96.90
2018-01-27T06:50:01.182Z,96.70
2018-01-27T06:52:29.060Z,96.60
2018-01-27T06:54:56.956Z,96.60
2018-01-27T06:57:24.449Z,96.60
2018-01-27T06:59:51.960Z,96.50
2018-01-27T07:02:19.443Z,96.30
2018-01-27T07:04:46.948Z,96.50
2018-01-27T07:07:14.440Z,96.90
2018-01-27T07:09:41.950Z,97.00
2018-01-27T07:12:09.435Z,97.20
2018-01-27T07:14:37.330Z,97.00
2018-01-27T07:17:04.813Z,97.00
2018-01-27T07:19:32.348Z,97.00
2018-01-27T07:22:00.230Z,96.80
2018-01-27T07:24:28.118Z,96.90
2018-01-27T07:26:56.007Z,96.70
2018-01-27T07:29:23.511Z,96.70
2018-01-27T07:31:51.032Z,96.50
2018-01-27T07:34:19.015Z,96.40
2018-01-27T07:36:46.914Z,96.40
2018-01-27T07:39:14.454Z,96.50
2018-01-27T07:41:41.952Z,96.60
2018-01-27T07:44:09.917Z,96.80
2018-01-27T07:46:37.790Z,96.90
2018-01-27T07:49:05.359Z,96.90
2018-01-27T07:51:32.868Z,96.70
2018-01-27T07:54:00.357Z,97.20
2018-01-27T07:56:27.869Z,97.20
2018-01-27T07:58:55.356Z,97.70
2018-01-27T08:01:23.332Z,97.70
2018-01-27T08:03:51.302Z,97.30
2018-01-27T08:06:18.929Z,97.30
2018-01-27T08:08:46.864Z,97.90
2018-01-27T08:11:14.444Z,97.90
2018-01-27T08:13:42.415Z,98.10
2018-01-27T08:16:09.996Z,97.90
2018-01-27T08:18:38.085Z,98.30
2018-01-27T08:21:06.060Z,98.20
2018-01-27T08:23:34.140Z,98.20
2018-01-27T08:26:01.648Z,98.20
2018-01-27T08:28:29.130Z,97.60
2018-01-27T08:30:56.644Z,97.90
2018-01-27T08:33:24.128Z,97.40
2018-01-27T08:35:51.637Z,97.20
2018-01-27T08:38:19.128Z,97.40
2018-01-27T08:40:46.648Z,97.20
2018-01-27T08:43:14.531Z,97.50
2018-01-27T08:45:42.504Z,97.60
2018-01-27T08:48:10.392Z,97.40
2018-01-27T08:50:38.288Z,92.20
2018-01-27T08:53:05.766Z,92.20
2018-01-27T08:55:33.273Z,91.60
2018-01-27T08:58:00.763Z,91.70
2018-01-27T09:00:28.267Z,92.40
2018-01-27T09:02:55.756Z,93.30
2018-01-27T09:05:23.267Z,93.80
2018-01-27T09:07:50.755Z,94.90
2018-01-27T09:10:18.291Z,95.40
2018-01-27T09:12:45.770Z,95.90
2018-01-27T09:15:13.260Z,95.40
2018-01-27T09:17:40.836Z,96.30
2018-01-27T09:20:08.324Z,96.70
2018-01-27T09:22:36.298Z,96.60
2018-01-27T09:25:04.174Z,96.90
2018-01-27T09:27:32.073Z,97.20
2018-01-27T09:29:59.562Z,97.20
2018-01-27T09:32:27.068Z,97.00
2018-01-27T09:34:54.548Z,97.10
2018-01-27T09:37:22.138Z,97.20
2018-01-27T09:39:49.629Z,97.10
2018-01-27T09:42:17.122Z,97.80
2018-01-27T09:44:44.617Z,98.10
2018-01-27T09:47:12.120Z,97.10
2018-01-27T09:49:40.004Z,96.70
2018-01-27T09:52:07.901Z,96.80
2018-01-27T09:54:35.374Z,96.80
2018-01-27T09:57:02.881Z,96.30
2018-01-27T09:59:30.369Z,96.40
2018-01-27T10:01:57.972Z,95.60
2018-01-27T10:04:25.881Z,95.00
2018-01-27T10:06:53.411Z,95.00
2018-01-27T10:09:20.896Z,94.70
2018-01-27T10:11:48.793Z,94.70
2018-01-27T10:14:16.288Z,94.70
2018-01-27T10:16:43.788Z,94.90
2018-01-27T10:19:11.276Z,93.60
2018-01-27T10:21:39.172Z,94.50
2018-01-27T10:24:07.047Z,95.00
2018-01-27T10:26:34.944Z,94.20
2018-01-27T10:29:02.424Z,94.20
2018-01-27T10:31:29.956Z,94.40
2018-01-27T10:33:57.827Z,94.20
2018-01-27T10:36:25.329Z,94.20
2018-01-27T10:38:52.816Z,94.40
2018-01-27T10:41:20.313Z,94.20
2018-01-27T10:43:47.812Z,93.80
2018-01-27T10:46:15.300Z,93.00
2018-01-27T10:48:43.204Z,93.40
2018-01-27T10:51:10.727Z,93.30
2018-01-27T10:53:38.240Z,93.10
2018-01-27T10:56:05.790Z,92.80
2018-01-27T10:58:33.755Z,93.20
2018-01-27T11:01:01.240Z,93.20
2018-01-27T11:03:29.140Z,93.10
2018-01-27T11:05:56.620Z,93.10
2018-01-27T11:08:24.158Z,91.60
2018-01-27T11:10:52.035Z,91.30
2018-01-27T11:13:19.603Z,91.30
2018-01-27T11:15:47.588Z,90.50
2018-01-27T11:18:15.083Z,90.50
2018-01-27T11:20:42.564Z,90.60
2018-01-27T11:23:10.064Z,92.20
2018-01-27T11:25:37.546Z,91.70
2018-01-27T11:28:05.148Z,91.90
2018-01-27T11:30:33.021Z,91.10
2018-01-27T11:33:00.515Z,91.10
2018-01-27T11:35:28.020Z,90.70
2018-01-27T11:37:55.521Z,89.20
2018-01-27T11:40:23.004Z,87.90
2018-01-27T11:42:50.499Z,85.80
2018-01-27T11:45:17.979Z,85.70
2018-01-27T11:47:45.488Z,86.10
2018-01-27T11:50:12.968Z,85.50
2018-01-27T11:52:40.472Z,86.30
2018-01-27T11:55:08.348Z,86.60
2018-01-27T11:57:36.256Z,85.50
2018-01-27T12:00:03.740Z,85.50
2018-01-27T12:02:31.249Z,85.70
2018-01-27T12:04:58.828Z,86.80
2018-01-27T12:07:26.305Z,86.30
2018-01-27T12:09:54.196Z,85.90
2018-01-27T12:12:22.165Z,86.30
2018-01-27T12:14:50.065Z,87.00
2018-01-27T12:17:17.547Z,87.00
2018-01-27T12:19:45.048Z,86.90
2018-01-27T12:22:12.532Z,86.20
2018-01-27T12:24:40.033Z,86.20
2018-01-27T12:27:07.916Z,86.20
2018-01-27T12:29:35.875Z,86.60
2018-01-27T12:32:03.356Z,86.60
2018-01-27T12:34:30.847Z,85.60
2018-01-27T12:36:58.340Z,85.40
2018-01-27T12:39:25.839Z,85.70
2018-01-27T12:41:53.336Z,86.20
2018-01-27T12:44:20.845Z,86.20
2018-01-27T12:46:48.348Z,85.70
2018-01-27T12:49:15.839Z,86.00
2018-01-27T12:51:43.420Z,85.60
2018-01-27T12:54:10.923Z,85.50
2018-01-27T12:56:38.408Z,86.20
2018-01-27T12:59:05.911Z,85.90
2018-01-27T13:01:33.396Z,86.40
2018-01-27T13:04:00.902Z,87.30
2018-01-27T13:06:28.444Z,85.70
2018-01-27T13:08:55.935Z,86.40
2018-01-27T13:11:24.176Z,85.50
2018-01-27T13:13:51.722Z,85.00
2018-01-27T13:16:19.248Z,84.90
2018-01-27T13:18:46.747Z,85.60
2018-01-27T13:21:14.252Z,85.60
2018-01-27T13:23:41.786Z,84.50
2018-01-27T13:26:09.265Z,83.30
2018-01-27T13:28:36.747Z,83.70
2018-01-27T13:31:04.247Z,84.50
2018-01-27T13:33:31.740Z,83.70
2018-01-27T13:35:59.311Z,82.70
2018-01-27T13:38:26.879Z,83.10
2018-01-27T13:40:54.488Z,83.50
2018-01-27T13:43:21.884Z,82.50
2018-01-27T13:45:49.383Z,78.80
2018-01-27T13:48:16.873Z,76.70
2018-01-27T13:50:44.772Z,80.50
2018-01-27T13:53:12.252Z,80.50
2018-01-27T13:55:39.788Z,78.70
2018-01-27T13:58:07.272Z,79.50
2018-01-27T14:00:35.168Z,80.50
2018-01-27T14:03:02.643Z,80.50
2018-01-27T14:05:30.148Z,81.30
2018-01-27T14:07:57.632Z,81.30
2018-01-27T14:10:25.130Z,81.80
2018-01-27T14:12:53.008Z,81.80
2018-01-27T14:15:20.904Z,81.60
2018-01-27T14:17:48.374Z,81.60
2018-01-27T14:20:15.880Z,83.00
2018-01-27T14:22:43.384Z,83.60
2018-01-27T14:25:10.883Z,81.50
2018-01-27T14:27:38.788Z,83.10
2018-01-27T14:30:06.288Z,83.10
2018-01-27T14:32:33.770Z,83.50
2018-01-27T14:35:01.381Z,83.40
2018-01-27T14:37:28.866Z,83.80
2018-01-27T14:39:56.355Z,84.00
2018-01-27T14:42:23.850Z,84.60
2018-01-27T14:44:51.365Z,84.50
2018-01-27T14:47:18.849Z,84.70
2018-01-27T14:49:46.327Z,85.00
2018-01-27T14:52:13.823Z,84.20
2018-01-27T14:54:41.310Z,84.60
2018-01-27T14:57:08.814Z,85.00
2018-01-27T14:59:36.600Z,83.90
2018-01-27T15:02:04.103Z,82.30
2018-01-27T15:04:31.583Z,83.30
2018-01-27T15:06:59.075Z,84.10
2018-01-27T15:09:26.563Z,84.90
2018-01-27T15:11:54.065Z,85.10
2018-01-27T15:14:21.547Z,85.10
2018-01-27T15:16:49.046Z,85.80
2018-01-27T15:19:16.532Z,85.90
2018-01-27T15:21:44.027Z,85.60
2018-01-27T15:24:11.513Z,85.80
2018-01-27T15:26:39.021Z,86.10
2018-01-27T15:29:06.504Z,86.10
2018-01-27T15:31:34.004Z,85.80
2018-01-27T15:34:01.885Z,86.20
2018-01-27T15:36:29.843Z,86.40
2018-01-27T15:38:57.328Z,86.40
2018-01-27T15:41:26.146Z,87.00
2018-01-27T15:43:53.623Z,87.00
2018-01-27T15:46:21.114Z,87.20
2018-01-27T15:48:48.596Z,87.70
2018-01-27T15:51:16.190Z,87.80
2018-01-27T15:53:43.675Z,88.00
2018-01-27T15:56:11.582Z,88.50
2018-01-27T15:58:39.068Z,88.50
2018-01-27T16:01:06.576Z,88.30
2018-01-27T16:03:34.055Z,88.40
2018-01-27T16:06:01.581Z,88.50
2018-01-27T16:08:29.055Z,88.60
2018-01-27T16:10:56.542Z,88.90
2018-01-27T16:13:24.045Z,88.70
2018-01-27T16:15:51.524Z,88.70
2018-01-27T16:18:19.416Z,89.10
2018-01-27T16:20:47.374Z,89.10
2018-01-27T16:23:15.330Z,89.30
2018-01-27T16:25:42.819Z,89.30
2018-01-27T16:28:10.315Z,88.70
2018-01-27T16:30:38.280Z,89.20
2018-01-27T16:33:05.808Z,89.20
2018-01-27T16:35:33.311Z,89.20
2018-01-27T16:38:00.811Z,89.20
2018-01-27T16:40:28.776Z,89.50
2018-01-27T16:42:56.680Z,89.70
2018-01-27T16:45:24.215Z,89.70
2018-01-27T16:47:51.739Z,89.60
2018-01-27T16:50:19.263Z,89.60
2018-01-27T16:52:46.906Z,89.90
2018-01-27T16:55:14.387Z,90.20
2018-01-27T16:57:41.920Z,90.00
2018-01-27T17:00:09.408Z,90.60
2018-01-27T17:02:36.995Z,90.80
2018-01-27T17:05:04.476Z,91.00
2018-01-27T17:07:32.158Z,91.30
2018-01-27T17:09:59.639Z,91.30
2018-01-27T17:12:27.170Z,91.50
2018-01-27T17:14:54.666Z,91.60
2018-01-27T17:17:22.386Z,91.70
2018-01-27T17:19:49.872Z,91.90
2018-01-27T17:22:17.373Z,91.90
2018-01-27T17:24:44.884Z,91.80
2018-01-27T17:27:12.881Z,91.70
2018-01-27T17:29:40.431Z,91.70
2018-01-27T17:32:08.437Z,91.50
2018-01-27T17:34:35.971Z,91.50
2018-01-27T17:37:03.585Z,91.50
2018-01-27T17:39:31.227Z,91.60
2018-01-27T17:41:58.829Z,91.50
2018-01-27T17:44:26.364Z,91.70
2018-01-27T17:46:53.856Z,91.80
2018-01-27T17:49:21.745Z,91.70
2018-01-27T17:51:49.731Z,91.30
2018-01-27T17:54:17.256Z,91.30
2018-01-27T17:56:44.877Z,91.60
2018-01-27T17:59:12.416Z,91.20
2018-01-27T18:01:39.904Z,91.20
2018-01-27T18:04:07.429Z,91.30
2018-01-27T18:06:34.916Z,91.00
2018-01-27T18:09:02.448Z,90.70
2018-01-27T18:11:29.967Z,90.70
2018-01-27T18:13:57.471Z,90.80
2018-01-27T18:16:24.951Z,90.80
2018-01-27T18:18:52.442Z,90.50
2018-01-27T18:21:19.924Z,90.50
2018-01-27T18:23:47.436Z,90.80
2018-01-27T18:26:15.306Z,90.50
2018-01-27T18:28:42.885Z,90.50
2018-01-27T18:31:10.758Z,90.60
2018-01-27T18:33:38.260Z,90.60
2018-01-27T18:36:05.742Z,90.30
2018-01-27T18:38:33.351Z,90.40
2018-01-27T18:41:00.836Z,90.50
2018-01-27T18:43:28.412Z,90.50
2018-01-27T18:45:55.890Z,90.20
2018-01-27T18:48:23.868Z,90.20
2018-01-27T18:50:51.365Z,90.20
2018-01-27T18:53:19.033Z,90.30
2018-01-27T18:55:46.903Z,90.00
2018-01-27T18:58:14.861Z,89.90
2018-01-27T19:00:42.452Z,89.90
2018-01-27T19:03:10.428Z,90.00
2018-01-27T19:05:37.958Z,90.00
2018-01-27T19:08:05.441Z,89.70
2018-01-27T19:10:32.944Z,89.70
2018-01-27T19:13:00.507Z,89.70
2018-01-27T19:15:28.008Z,89.60
2018-01-27T19:17:55.886Z,89.70
2018-01-27T19:20:23.780Z,89.80
2018-01-27T19:22:51.404Z,89.80
2018-01-27T19:25:18.895Z,89.90
2018-01-27T19:27:46.791Z,89.80
2018-01-27T19:30:14.680Z,90.10
2018-01-27T19:32:42.205Z,90.00
2018-01-27T19:35:09.712Z,90.20
2018-01-27T19:37:37.676Z,90.10
2018-01-27T19:40:05.562Z,90.20
2018-01-27T19:42:33.057Z,90.20
2018-01-27T19:45:00.555Z,90.00
2018-01-27T19:47:28.056Z,89.70
2018-01-27T19:49:55.561Z,90.10
2018-01-27T19:52:23.098Z,90.40
2018-01-27T19:54:50.671Z,90.40
2018-01-27T19:57:18.187Z,90.40
2018-01-27T19:59:45.704Z,90.20
2018-01-27T20:02:13.252Z,90.10
2018-01-27T20:04:40.760Z,90.10
2018-01-27T20:07:08.453Z,90.00
2018-01-27T20:09:36.318Z,90.00
2018-01-27T20:12:03.951Z,90.00
2018-01-27T20:14:31.472Z,90.00
2018-01-27T20:16:59.403Z,90.00
2018-01-27T20:19:26.875Z,90.00
2018-01-27T20:21:54.624Z,90.00
2018-01-27T20:24:22.165Z,90.30
2018-01-27T20:26:49.743Z,90.40
2018-01-27T20:29:17.620Z,90.50
2018-01-27T20:31:45.601Z,90.20
2018-01-27T20:34:13.570Z,90.50
2018-01-27T20:36:41.076Z,90.60
2018-01-27T20:39:08.560Z,90.30
2018-01-27T20:41:36.077Z,90.30
2018-01-27T20:44:03.560Z,90.00
2018-01-27T20:46:31.265Z,90.10
2018-01-27T20:48:58.748Z,90.10
2018-01-27T20:51:26.432Z,89.90
2018-01-27T20:53:54.812Z,89.80
2018-01-27T20:56:22.332Z,89.90
2018-01-27T20:58:49.843Z,89.60
2018-01-27T21:01:17.372Z,89.70
2018-01-27T21:03:45.267Z,89.30
2018-01-27T21:06:12.760Z,89.30
2018-01-27T21:08:40.635Z,89.00
2018-01-27T21:11:08.519Z,88.60
2018-01-27T21:13:36.396Z,88.60
2018-01-27T21:16:04.296Z,88.80
2018-01-27T21:18:31.832Z,88.80
2018-01-27T21:20:59.816Z,88.90
2018-01-27T21:23:27.793Z,88.90
2018-01-27T21:25:55.284Z,88.90
2018-01-27T21:28:22.759Z,88.70
2018-01-27T21:30:50.259Z,88.40
2018-01-27T21:33:17.741Z,88.10
2018-01-27T21:35:45.224Z,88.40
2018-01-27T21:38:12.723Z,88.40
2018-01-27T21:40:40.596Z,88.40
2018-01-27T21:43:08.569Z,88.80
2018-01-27T21:45:36.461Z,88.90
2018-01-27T21:48:04.376Z,88.40
2018-01-27T21:50:31.903Z,88.40
2018-01-27T21:52:59.400Z,89.10
2018-01-27T21:55:26.949Z,88.80
2018-01-27T21:57:54.555Z,89.10
2018-01-27T22:00:22.036Z,89.10
2018-01-27T22:02:49.531Z,88.70
2018-01-27T22:05:17.023Z,88.80
2018-01-27T22:07:44.528Z,88.80
2018-01-27T22:10:12.066Z,88.60
2018-01-27T22:12:39.643Z,88.40
2018-01-27T22:15:07.157Z,88.60
2018-01-27T22:17:34.658Z,88.30
2018-01-27T22:20:02.148Z,88.00
2018-01-27T22:22:29.732Z,88.10
2018-01-27T22:24:57.216Z,88.00
2018-01-27T22:27:25.104Z,88.70
2018-01-27T22:29:52.579Z,88.70
2018-01-27T22:32:20.107Z,88.20
2018-01-27T22:34:47.588Z,87.80
2018-01-27T22:37:15.091Z,87.50
2018-01-27T22:39:42.573Z,87.20
2018-01-27T22:42:10.066Z,87.30
2018-01-27T22:44:37.539Z,87.60
2018-01-27T22:47:05.039Z,87.70
2018-01-27T22:49:32.519Z,87.70
2018-01-27T22:52:00.411Z,87.80
2018-01-27T22:54:28.289Z,87.70
2018-01-27T22:56:56.189Z,87.60
2018-01-27T22:59:23.730Z,87.60
2018-01-27T23:01:51.599Z,88.60
2018-01-27T23:04:19.090Z,88.70
2018-01-27T23:06:46.963Z,89.50
2018-01-27T23:09:14.856Z,89.50
2018-01-27T23:11:42.815Z,89.90
2018-01-27T23:14:10.314Z,89.90
2018-01-27T23:16:37.796Z,89.70
2018-01-27T23:19:05.291Z,90.30
2018-01-27T23:21:32.771Z,90.10
2018-01-27T23:24:00.262Z,89.70
2018-01-27T23:26:27.840Z,90.10
2018-01-27T23:28:55.418Z,89.50
2018-01-27T23:31:23.387Z,89.50
2018-01-27T23:33:50.890Z,89.50
2018-01-27T23:36:18.372Z,89.70
2018-01-27T23:38:45.867Z,90.10
2018-01-27T23:41:13.348Z,90.70
2018-01-27T23:43:40.849Z,90.40
2018-01-27T23:46:08.724Z,91.40
2018-01-27T23:48:36.215Z,91.40
2018-01-27T23:51:04.096Z,90.50
2018-01-27T23:53:31.650Z,90.50
2018-01-27T23:55:59.223Z,90.40
2018-01-27T23:58:27.122Z,90.70
